sensor_id;sensor_type;location;lat;lon;timestamp;pressure;altitude;pressure_sealevel;temperature;humidity
51439;BME280;38816;51.142;-0.974;2023-03-26T00:00:43;98786.50;;;7.45;100.00
51439;BME280;38816;51.142;-0.974;2023-03-26T00:03:10;98772.81;;;7.38;100.00
51439;BME280;38816;51.142;-0.974;2023-03-26T00:05:37;98766.00;;;7.35;100.00
51439;BME280;38816;51.142;-0.974;2023-03-26T00:08:02;98775.41;;;7.40;100.00
51439;BME280;38816;51.142;-0.974;2023-03-26T00:10:28;98763.41;;;7.32;100.00
51439;BME280;38816;51.142;-0.974;2023-03-26T00:12:53;98755.72;;;7.29;100.00
51439;BME280;38816;51.142;-0.974;2023-03-26T00:15:19;98753.19;;;7.26;100.00
51439;BME280;38816;51.142;-0.974;2023-03-26T00:17:44;98741.19;;;7.19;100.00
51439;BME280;38816;51.142;-0.974;2023-03-26T00:20:12;98742.91;;;7.20;100.00
51439;BME280;38816;51.142;-0.974;2023-03-26T00:22:39;98740.31;;;7.16;100.00
51439;BME280;38816;51.142;-0.974;2023-03-26T00:25:04;98727.50;;;7.06;100.00
51439;BME280;38816;51.142;-0.974;2023-03-26T00:27:32;98731.78;;;7.10;100.00
51439;BME280;38816;51.142;-0.974;2023-03-26T00:29:58;98733.50;;;7.13;100.00
51439;BME280;38816;51.142;-0.974;2023-03-26T00:32:26;98725.84;;;7.13;100.00
51439;BME280;38816;51.142;-0.974;2023-03-26T00:34:53;98725.00;;;7.20;100.00
51439;BME280;38816;51.142;-0.974;2023-03-26T00:37:21;98709.69;;;7.17;100.00
51439;BME280;38816;51.142;-0.974;2023-03-26T00:39:53;98710.56;;;7.24;100.00
51439;BME280;38816;51.142;-0.974;2023-03-26T00:42:23;98702.03;;;7.25;100.00
51439;BME280;38816;51.142;-0.974;2023-03-26T00:44:49;98701.22;;;7.27;100.00
51439;BME280;38816;51.142;-0.974;2023-03-26T00:47:19;98696.09;;;7.26;100.00
51439;BME280;38816;51.142;-0.974;2023-03-26T00:49:45;98688.41;;;7.24;100.00
51439;BME280;38816;51.142;-0.974;2023-03-26T00:52:11;98672.19;;;7.16;100.00
51439;BME280;38816;51.142;-0.974;2023-03-26T00:54:36;98680.72;;;7.20;100.00
51439;BME280;38816;51.142;-0.974;2023-03-26T00:57:02;98667.94;;;7.18;100.00
51439;BME280;38816;51.142;-0.974;2023-03-26T00:59:31;98656.00;;;7.20;100.00
51439;BME280;38816;51.142;-0.974;2023-03-26T01:02:00;98665.41;;;7.27;100.00
51439;BME280;38816;51.142;-0.974;2023-03-26T01:04:31;98658.59;;;7.28;100.00
51439;BME280;38816;51.142;-0.974;2023-03-26T01:07:18;98658.59;;;7.26;100.00
51439;BME280;38816;51.142;-0.974;2023-03-26T01:09:47;98656.88;;;7.24;100.00
51439;BME280;38816;51.142;-0.974;2023-03-26T01:12:21;98652.66;;;7.27;100.00
51439;BME280;38816;51.142;-0.974;2023-03-26T01:14:50;98652.63;;;7.29;100.00
51439;BME280;38816;51.142;-0.974;2023-03-26T01:17:16;98633.88;;;7.22;100.00
51439;BME280;38816;51.142;-0.974;2023-03-26T01:22:42;98628.78;;;7.25;100.00
51439;BME280;38816;51.142;-0.974;2023-03-26T01:25:09;98629.63;;;7.29;100.00
51439;BME280;38816;51.142;-0.974;2023-03-26T01:27:45;98626.25;;;7.31;100.00
51439;BME280;38816;51.142;-0.974;2023-03-26T01:33:00;98619.44;;;7.30;100.00
51439;BME280;38816;51.142;-0.974;2023-03-26T01:45:46;98607.44;;;7.09;100.00
51439;BME280;38816;51.142;-0.974;2023-03-26T01:48:13;98604.84;;;7.05;100.00
51439;BME280;38816;51.142;-0.974;2023-03-26T01:50:38;98607.38;;;7.00;100.00
51439;BME280;38816;51.142;-0.974;2023-03-26T01:53:04;98609.94;;;7.00;100.00
51439;BME280;38816;51.142;-0.974;2023-03-26T02:00:54;98576.66;;;6.80;100.00
51439;BME280;38816;51.142;-0.974;2023-03-26T02:03:41;98593.69;;;6.88;100.00
51439;BME280;38816;51.142;-0.974;2023-03-26T02:06:15;98584.31;;;6.80;100.00
51439;BME280;38816;51.142;-0.974;2023-03-26T02:11:13;98579.22;;;6.83;100.00
51439;BME280;38816;51.142;-0.974;2023-03-26T02:13:41;98569.81;;;6.75;100.00
51439;BME280;38816;51.142;-0.974;2023-03-26T02:16:11;98581.75;;;6.77;100.00
51439;BME280;38816;51.142;-0.974;2023-03-26T02:18:39;98563.81;;;6.68;100.00
51439;BME280;38816;51.142;-0.974;2023-03-26T02:21:16;98558.72;;;6.68;100.00
51439;BME280;38816;51.142;-0.974;2023-03-26T02:23:45;98568.97;;;6.71;100.00
51439;BME280;38816;51.142;-0.974;2023-03-26T02:26:15;98556.13;;;6.65;100.00
51439;BME280;38816;51.142;-0.974;2023-03-26T02:28:40;98553.59;;;6.64;100.00
51439;BME280;38816;51.142;-0.974;2023-03-26T02:31:06;98540.81;;;6.57;100.00
51439;BME280;38816;51.142;-0.974;2023-03-26T02:33:35;98552.75;;;6.65;100.00
51439;BME280;38816;51.142;-0.974;2023-03-26T02:36:01;98551.03;;;6.62;100.00
51439;BME280;38816;51.142;-0.974;2023-03-26T02:38:28;98551.00;;;6.59;100.00
51439;BME280;38816;51.142;-0.974;2023-03-26T02:40:54;98544.19;;;6.55;100.00
51439;BME280;38816;51.142;-0.974;2023-03-26T02:43:20;98534.78;;;6.46;100.00
51439;BME280;38816;51.142;-0.974;2023-03-26T02:45:46;98541.63;;;6.49;100.00
51439;BME280;38816;51.142;-0.974;2023-03-26T02:48:11;98526.22;;;6.38;100.00
51439;BME280;38816;51.142;-0.974;2023-03-26T02:50:37;98534.75;;;6.42;100.00
51439;BME280;38816;51.142;-0.974;2023-03-26T02:53:02;98538.06;;;6.30;100.00
51439;BME280;38816;51.142;-0.974;2023-03-26T02:55:28;98533.00;;;6.31;100.00
51439;BME280;38816;51.142;-0.974;2023-03-26T02:57:53;98536.38;;;6.29;100.00
51439;BME280;38816;51.142;-0.974;2023-03-26T03:00:19;98524.41;;;6.19;100.00
51439;BME280;38816;51.142;-0.974;2023-03-26T03:02:47;98520.13;;;6.16;100.00
51439;BME280;38816;51.142;-0.974;2023-03-26T03:05:13;98535.44;;;6.16;100.00
51439;BME280;38816;51.142;-0.974;2023-03-26T03:07:38;98524.34;;;6.11;100.00
51439;BME280;38816;51.142;-0.974;2023-03-26T03:10:05;98532.00;;;6.09;100.00
51439;BME280;38816;51.142;-0.974;2023-03-26T03:12:33;98521.81;;;6.08;100.00
51439;BME280;38816;51.142;-0.974;2023-03-26T03:14:58;98513.25;;;6.03;100.00
51439;BME280;38816;51.142;-0.974;2023-03-26T03:17:24;98521.78;;;6.05;100.00
51439;BME280;38816;51.142;-0.974;2023-03-26T03:19:49;98516.63;;;5.97;100.00
51439;BME280;38816;51.142;-0.974;2023-03-26T03:22:14;98516.66;;;6.00;100.00
51439;BME280;38816;51.142;-0.974;2023-03-26T03:24:40;98524.28;;;6.02;100.00
51439;BME280;38816;51.142;-0.974;2023-03-26T03:27:08;98512.38;;;5.95;100.00
51439;BME280;38816;51.142;-0.974;2023-03-26T03:29:34;98503.81;;;5.93;100.00
51439;BME280;38816;51.142;-0.974;2023-03-26T03:31:59;98508.94;;;5.93;100.00
51439;BME280;38816;51.142;-0.974;2023-03-26T03:34:25;98512.34;;;5.92;100.00
51439;BME280;38816;51.142;-0.974;2023-03-26T03:36:50;98513.16;;;5.91;100.00
51439;BME280;38816;51.142;-0.974;2023-03-26T03:39:16;98498.63;;;5.83;100.00
51439;BME280;38816;51.142;-0.974;2023-03-26T03:41:42;98508.88;;;5.87;100.00
51439;BME280;38816;51.142;-0.974;2023-03-26T03:44:07;98500.34;;;5.84;100.00
51439;BME280;38816;51.142;-0.974;2023-03-26T03:46:33;98509.66;;;5.78;100.00
51439;BME280;38816;51.142;-0.974;2023-03-26T03:48:58;98498.56;;;5.74;100.00
51439;BME280;38816;51.142;-0.974;2023-03-26T03:51:23;98498.53;;;5.71;100.00
51439;BME280;38816;51.142;-0.974;2023-03-26T03:53:49;98498.50;;;5.67;100.00
51439;BME280;38816;51.142;-0.974;2023-03-26T03:56:15;98501.91;;;5.66;100.00
51439;BME280;38816;51.142;-0.974;2023-03-26T03:58:43;98497.66;;;5.63;100.00
51439;BME280;38816;51.142;-0.974;2023-03-26T04:03:44;98484.81;;;5.54;100.00
51439;BME280;38816;51.142;-0.974;2023-03-26T04:06:11;98506.09;;;5.61;100.00
51439;BME280;38816;51.142;-0.974;2023-03-26T04:08:37;98489.94;;;5.54;100.00
51439;BME280;38816;51.142;-0.974;2023-03-26T04:11:03;98494.22;;;5.59;100.00
51439;BME280;38816;51.142;-0.974;2023-03-26T04:13:28;98502.72;;;5.58;100.00
51439;BME280;38816;51.142;-0.974;2023-03-26T04:15:54;98488.19;;;5.51;100.00
51439;BME280;38816;51.142;-0.974;2023-03-26T04:18:20;98490.72;;;5.48;100.00
51439;BME280;38816;51.142;-0.974;2023-03-26T04:20:46;98493.22;;;5.41;100.00
51439;BME280;38816;51.142;-0.974;2023-03-26T04:23:13;98492.31;;;5.37;100.00
51439;BME280;38816;51.142;-0.974;2023-03-26T04:25:44;98497.38;;;5.34;100.00
51439;BME280;38816;51.142;-0.974;2023-03-26T04:28:21;98499.97;;;5.39;100.00
51439;BME280;38816;51.142;-0.974;2023-03-26T04:30:51;98499.97;;;5.39;100.00
51439;BME280;38816;51.142;-0.974;2023-03-26T04:33:18;98487.16;;;5.31;100.00
51439;BME280;38816;51.142;-0.974;2023-03-26T04:35:45;98499.13;;;5.38;100.00
51439;BME280;38816;51.142;-0.974;2023-03-26T04:38:13;98499.97;;;5.39;100.00
51439;BME280;38816;51.142;-0.974;2023-03-26T04:40:41;98497.41;;;5.39;100.00
51439;BME280;38816;51.142;-0.974;2023-03-26T04:43:16;98501.66;;;5.40;100.00
51439;BME280;38816;51.142;-0.974;2023-03-26T04:45:43;98493.97;;;5.35;100.00
51439;BME280;38816;51.142;-0.974;2023-03-26T04:48:10;98498.22;;;5.31;100.00
51439;BME280;38816;51.142;-0.974;2023-03-26T04:50:42;98499.13;;;5.37;100.00
51439;BME280;38816;51.142;-0.974;2023-03-26T04:53:16;98500.81;;;5.38;100.00
51439;BME280;38816;51.142;-0.974;2023-03-26T04:55:58;98506.75;;;5.37;100.00
51439;BME280;38816;51.142;-0.974;2023-03-26T04:58:25;98505.03;;;5.32;100.00
51439;BME280;38816;51.142;-0.974;2023-03-26T05:00:57;98502.47;;;5.32;100.00
51439;BME280;38816;51.142;-0.974;2023-03-26T05:03:25;98505.88;;;5.34;100.00
51439;BME280;38816;51.142;-0.974;2023-03-26T05:05:56;98504.19;;;5.35;100.00
51439;BME280;38816;51.142;-0.974;2023-03-26T05:08:21;98496.50;;;5.30;100.00
51439;BME280;38816;51.142;-0.974;2023-03-26T05:10:47;98501.66;;;5.37;100.00
51439;BME280;38816;51.142;-0.974;2023-03-26T05:13:12;98509.31;;;5.38;100.00
51439;BME280;38816;51.142;-0.974;2023-03-26T05:15:37;98499.91;;;5.32;100.00
51439;BME280;38816;51.142;-0.974;2023-03-26T05:18:06;98509.31;;;5.40;100.00
51439;BME280;38816;51.142;-0.974;2023-03-26T05:20:33;98497.34;;;5.31;100.00
51439;BME280;38816;51.142;-0.974;2023-03-26T05:22:58;98505.91;;;5.38;100.00
51439;BME280;38816;51.142;-0.974;2023-03-26T05:25:24;98504.22;;;5.40;100.00
51439;BME280;38816;51.142;-0.974;2023-03-26T05:27:49;98513.56;;;5.39;100.00
51439;BME280;38816;51.142;-0.974;2023-03-26T05:30:17;98504.16;;;5.33;100.00
51439;BME280;38816;51.142;-0.974;2023-03-26T05:32:44;98501.59;;;5.30;100.00
51439;BME280;38816;51.142;-0.974;2023-03-26T05:35:11;98511.00;;;5.36;100.00
51439;BME280;38816;51.142;-0.974;2023-03-26T05:37:37;98514.38;;;5.33;100.00
51439;BME280;38816;51.142;-0.974;2023-03-26T05:40:04;98503.28;;;5.30;100.00
51439;BME280;38816;51.142;-0.974;2023-03-26T05:42:35;98518.56;;;5.30;100.00
51439;BME280;38816;51.142;-0.974;2023-03-26T05:45:00;98511.81;;;5.32;100.00
51439;BME280;38816;51.142;-0.974;2023-03-26T05:47:26;98507.53;;;5.29;100.00
51439;BME280;38816;51.142;-0.974;2023-03-26T05:49:51;98509.22;;;5.30;100.00
51439;BME280;38816;51.142;-0.974;2023-03-26T05:52:17;98527.16;;;5.37;100.00
51439;BME280;38816;51.142;-0.974;2023-03-26T05:54:43;98520.31;;;5.36;100.00
51439;BME280;38816;51.142;-0.974;2023-03-26T05:57:08;98520.31;;;5.36;100.00
51439;BME280;38816;51.142;-0.974;2023-03-26T05:59:34;98527.94;;;5.32;100.00
51439;BME280;38816;51.142;-0.974;2023-03-26T06:01:59;98521.91;;;5.24;100.00
51439;BME280;38816;51.142;-0.974;2023-03-26T06:04:25;98532.97;;;5.26;100.00
51439;BME280;38816;51.142;-0.974;2023-03-26T06:06:52;98521.88;;;5.18;100.00
51439;BME280;38816;51.142;-0.974;2023-03-26T06:09:18;98519.19;;;5.07;100.00
51439;BME280;38816;51.142;-0.974;2023-03-26T06:11:44;98529.44;;;5.12;100.00
51439;BME280;38816;51.142;-0.974;2023-03-26T06:14:09;98538.75;;;5.13;100.00
51439;BME280;38816;51.142;-0.974;2023-03-26T06:16:34;98530.22;;;5.08;100.00
51439;BME280;38816;51.142;-0.974;2023-03-26T06:19:00;98543.84;;;5.12;100.00
51439;BME280;38816;51.142;-0.974;2023-03-26T06:21:25;98548.94;;;5.13;100.00
51439;BME280;38816;51.142;-0.974;2023-03-26T06:23:51;98531.03;;;5.01;100.00
51439;BME280;38816;51.142;-0.974;2023-03-26T06:26:17;98541.25;;;5.08;100.00
51439;BME280;38816;51.142;-0.974;2023-03-26T06:28:42;98543.00;;;5.10;100.00
51439;BME280;38816;51.142;-0.974;2023-03-26T06:31:08;98540.41;;;5.05;100.00
51439;BME280;38816;51.142;-0.974;2023-03-26T06:33:33;98551.50;;;5.12;100.00
51439;BME280;38816;51.142;-0.974;2023-03-26T06:35:58;98553.16;;;5.08;100.00
51439;BME280;38816;51.142;-0.974;2023-03-26T06:38:24;98554.00;;;5.07;100.00
51439;BME280;38816;51.142;-0.974;2023-03-26T06:40:49;98542.94;;;5.05;100.00
51439;BME280;38816;51.142;-0.974;2023-03-26T06:43:15;98565.97;;;5.16;100.00
51439;BME280;38816;51.142;-0.974;2023-03-26T06:45:41;98560.88;;;5.16;100.00
51439;BME280;38816;51.142;-0.974;2023-03-26T06:48:06;98583.06;;;5.23;100.00
51439;BME280;38816;51.142;-0.974;2023-03-26T06:50:32;98579.66;;;5.22;100.00
51439;BME280;38816;51.142;-0.974;2023-03-26T06:52:58;98584.72;;;5.21;100.00
51439;BME280;38816;51.142;-0.974;2023-03-26T06:55:24;98574.47;;;5.16;100.00
51439;BME280;38816;51.142;-0.974;2023-03-26T06:57:50;98577.06;;;5.19;100.00
51439;BME280;38816;51.142;-0.974;2023-03-26T07:00:17;98582.16;;;5.21;100.00
51439;BME280;38816;51.142;-0.974;2023-03-26T07:02:42;98590.72;;;5.26;100.00
51439;BME280;38816;51.142;-0.974;2023-03-26T07:05:08;98582.19;;;5.22;100.00
51439;BME280;38816;51.142;-0.974;2023-03-26T07:07:34;98600.09;;;5.30;100.00
51439;BME280;38816;51.142;-0.974;2023-03-26T07:09:59;98600.13;;;5.31;100.00
51439;BME280;38816;51.142;-0.974;2023-03-26T07:12:25;98593.19;;;5.21;100.00
51439;BME280;38816;51.142;-0.974;2023-03-26T07:14:51;98615.28;;;5.19;100.00
51439;BME280;38816;51.142;-0.974;2023-03-26T07:17:16;98614.38;;;5.14;100.00
51439;BME280;38816;51.142;-0.974;2023-03-26T07:19:42;98619.50;;;5.19;100.00
51439;BME280;38816;51.142;-0.974;2023-03-26T07:22:14;98628.88;;;5.21;100.00
51439;BME280;38816;51.142;-0.974;2023-03-26T07:24:40;98631.41;;;5.21;100.00
51439;BME280;38816;51.142;-0.974;2023-03-26T07:29:58;98630.72;;;5.33;100.00
51439;BME280;38816;51.142;-0.974;2023-03-26T07:32:42;98638.41;;;5.39;100.00
51439;BME280;38816;51.142;-0.974;2023-03-26T07:35:22;98637.59;;;5.42;100.00
51439;BME280;38816;51.142;-0.974;2023-03-26T07:45:48;98642.50;;;5.23;100.00
51439;BME280;38816;51.142;-0.974;2023-03-26T07:48:22;98657.78;;;5.26;100.00
51439;BME280;38816;51.142;-0.974;2023-03-26T07:50:55;98659.47;;;5.24;100.00
51439;BME280;38816;51.142;-0.974;2023-03-26T07:53:21;98648.44;;;5.24;100.00
51439;BME280;38816;51.142;-0.974;2023-03-26T08:15:30;98686.38;;;5.74;100.00
51439;BME280;38816;51.142;-0.974;2023-03-26T08:21:15;98706.19;;;5.98;100.00
51439;BME280;38816;51.142;-0.974;2023-03-26T08:24:09;98693.44;;;5.96;100.00
51439;BME280;38816;51.142;-0.974;2023-03-26T08:26:52;98692.72;;;6.08;100.00
51439;BME280;38816;51.142;-0.974;2023-03-26T08:29:29;98709.84;;;6.24;100.00
51439;BME280;38816;51.142;-0.974;2023-03-26T08:31:58;98719.25;;;6.27;100.00
51439;BME280;38816;51.142;-0.974;2023-03-26T08:34:25;98711.50;;;6.21;100.00
51439;BME280;38816;51.142;-0.974;2023-03-26T08:36:54;98714.97;;;6.26;100.00
51439;BME280;38816;51.142;-0.974;2023-03-26T08:39:19;98728.66;;;6.32;100.00
51439;BME280;38816;51.142;-0.974;2023-03-26T08:55:59;98761.06;;;6.40;100.00
51439;BME280;38816;51.142;-0.974;2023-03-26T09:01:50;98767.91;;;6.45;100.00
51439;BME280;38816;51.142;-0.974;2023-03-26T09:07:24;98779.06;;;6.56;100.00
51439;BME280;38816;51.142;-0.974;2023-03-26T09:12:58;98791.84;;;6.61;100.00
51439;BME280;38816;51.142;-0.974;2023-03-26T09:21:31;98811.34;;;6.50;100.00
51439;BME280;38816;51.142;-0.974;2023-03-26T09:26:43;98824.16;;;6.53;100.00
51439;BME280;38816;51.142;-0.974;2023-03-26T09:32:46;98817.31;;;6.52;100.00
51439;BME280;38816;51.142;-0.974;2023-03-26T09:35:44;98836.06;;;6.57;100.00
51439;BME280;38816;51.142;-0.974;2023-03-26T09:41:15;98843.09;;;6.76;100.00
51439;BME280;38816;51.142;-0.974;2023-03-26T09:46:31;98854.34;;;6.98;100.00
51439;BME280;38816;51.142;-0.974;2023-03-26T09:49:21;98853.56;;;7.07;100.00
51439;BME280;38816;51.142;-0.974;2023-03-26T09:52:13;98860.34;;;7.05;100.00
51439;BME280;38816;51.142;-0.974;2023-03-26T10:00:25;98874.88;;;7.09;100.00
51439;BME280;38816;51.142;-0.974;2023-03-26T10:05:57;98887.72;;;7.20;100.00
51439;BME280;38816;51.142;-0.974;2023-03-26T10:08:35;98899.72;;;7.25;100.00
51439;BME280;38816;51.142;-0.974;2023-03-26T10:13:59;98916.78;;;7.31;100.00
51439;BME280;38816;51.142;-0.974;2023-03-26T10:16:45;98920.22;;;7.34;100.00
51439;BME280;38816;51.142;-0.974;2023-03-26T10:22:21;98935.69;;;7.50;100.00
51439;BME280;38816;51.142;-0.974;2023-03-26T10:30:53;98939.22;;;7.67;100.00
51439;BME280;38816;51.142;-0.974;2023-03-26T10:36:31;98958.88;;;7.71;100.00
51439;BME280;38816;51.142;-0.974;2023-03-26T10:45:06;98953.91;;;7.94;100.00
51439;BME280;38816;51.142;-0.974;2023-03-26T10:56:01;98993.09;;;7.89;100.00
51439;BME280;38816;51.142;-0.974;2023-03-26T10:58:31;98989.66;;;7.83;100.00
51439;BME280;38816;51.142;-0.974;2023-03-26T11:01:09;99007.53;;;7.80;100.00
51439;BME280;38816;51.142;-0.974;2023-03-26T11:03:52;99010.03;;;7.71;100.00
51439;BME280;38816;51.142;-0.974;2023-03-26T11:06:46;99004.84;;;7.62;100.00
51439;BME280;38816;51.142;-0.974;2023-03-26T11:10:10;99022.91;;;7.85;100.00
51439;BME280;38816;51.142;-0.974;2023-03-26T11:18:16;99033.63;;;8.55;100.00
51439;BME280;38816;51.142;-0.974;2023-03-26T11:23:53;99039.72;;;8.74;100.00
51439;BME280;38816;51.142;-0.974;2023-03-26T11:26:35;99047.44;;;8.86;100.00
51439;BME280;38816;51.142;-0.974;2023-03-26T11:31:59;99045.81;;;9.10;100.00
51439;BME280;38816;51.142;-0.974;2023-03-26T11:34:33;99047.59;;;9.37;100.00
51439;BME280;38816;51.142;-0.974;2023-03-26T11:37:05;99045.91;;;9.53;100.00
51439;BME280;38816;51.142;-0.974;2023-03-26T11:39:53;99056.19;;;9.79;100.00
51439;BME280;38816;51.142;-0.974;2023-03-26T11:42:22;99055.31;;;9.72;100.00
51439;BME280;38816;51.142;-0.974;2023-03-26T11:45:11;99064.75;;;9.59;100.00
51439;BME280;38816;51.142;-0.974;2023-03-26T11:48:15;99077.56;;;9.50;100.00
51439;BME280;38816;51.142;-0.974;2023-03-26T11:50:49;99083.53;;;9.57;100.00
51439;BME280;38816;51.142;-0.974;2023-03-26T11:53:19;99086.13;;;9.69;100.00
51439;BME280;38816;51.142;-0.974;2023-03-26T11:55:54;99074.16;;;9.68;100.00
51439;BME280;38816;51.142;-0.974;2023-03-26T11:58:27;99072.44;;;9.75;100.00
51439;BME280;38816;51.142;-0.974;2023-03-26T12:00:55;99092.16;;;9.86;100.00
51439;BME280;38816;51.142;-0.974;2023-03-26T12:03:20;99105.84;;;9.92;100.00
51439;BME280;38816;51.142;-0.974;2023-03-26T12:05:51;99108.41;;;10.07;100.00
51439;BME280;38816;51.142;-0.974;2023-03-26T12:08:29;99110.94;;;10.08;100.00
51439;BME280;38816;51.142;-0.974;2023-03-26T12:10:58;99122.94;;;10.03;100.00
51439;BME280;38816;51.142;-0.974;2023-03-26T12:16:11;99121.25;;;10.19;100.00
51439;BME280;38816;51.142;-0.974;2023-03-26T12:18:39;99117.84;;;10.29;100.00
51439;BME280;38816;51.142;-0.974;2023-03-26T12:21:14;99133.25;;;10.40;100.00
51439;BME280;38816;51.142;-0.974;2023-03-26T12:23:58;99134.97;;;10.43;100.00
51439;BME280;38816;51.142;-0.974;2023-03-26T12:29:06;99136.63;;;10.18;100.00
51439;BME280;38816;51.142;-0.974;2023-03-26T12:31:40;99152.91;;;9.98;100.00
51439;BME280;38816;51.142;-0.974;2023-03-26T12:34:13;99161.44;;;9.86;100.00
51439;BME280;38816;51.142;-0.974;2023-03-26T12:36:47;99161.44;;;9.73;100.00
51439;BME280;38816;51.142;-0.974;2023-03-26T12:39:32;99153.72;;;9.74;100.00
51439;BME280;38816;51.142;-0.974;2023-03-26T12:42:00;99176.00;;;9.87;100.00
51439;BME280;38816;51.142;-0.974;2023-03-26T12:44:35;99163.19;;;10.01;100.00
51439;BME280;38816;51.142;-0.974;2023-03-26T12:49:51;99175.22;;;10.28;100.00
51439;BME280;38816;51.142;-0.974;2023-03-26T12:54:59;99184.63;;;10.69;100.00
51439;BME280;38816;51.142;-0.974;2023-03-26T12:57:55;99187.16;;;10.89;100.00
51439;BME280;38816;51.142;-0.974;2023-03-26T13:08:19;99227.28;;;9.80;100.00
51439;BME280;38816;51.142;-0.974;2023-03-26T13:19:06;99262.34;;;8.44;100.00
51439;BME280;38816;51.142;-0.974;2023-03-26T13:41:38;99336.75;;;7.84;100.00
51439;BME280;38816;51.142;-0.974;2023-03-26T13:44:17;99342.75;;;7.86;100.00
51439;BME280;38816;51.142;-0.974;2023-03-26T13:46:52;99333.31;;;7.81;100.00
51439;BME280;38816;51.142;-0.974;2023-03-26T13:49:30;99350.59;;;7.99;100.00
51439;BME280;38816;51.142;-0.974;2023-03-26T13:52:33;99365.94;;;7.99;100.00
51439;BME280;38816;51.142;-0.974;2023-03-26T14:03:19;99373.97;;;7.61;100.00
51439;BME280;38816;51.142;-0.974;2023-03-26T14:05:50;99374.16;;;7.75;100.00
51439;BME280;38816;51.142;-0.974;2023-03-26T14:11:00;99400.91;;;7.98;100.00
51439;BME280;38816;51.142;-0.974;2023-03-26T14:13:37;99412.75;;;7.92;100.00
51439;BME280;38816;51.142;-0.974;2023-03-26T14:16:15;99402.63;;;7.99;100.00
51439;BME280;38816;51.142;-0.974;2023-03-26T14:18:55;99416.94;;;7.86;100.00
51439;BME280;38816;51.142;-0.974;2023-03-26T14:29:29;99432.09;;;8.35;100.00
51439;BME280;38816;51.142;-0.974;2023-03-26T14:34:35;99455.28;;;8.43;100.00
51439;BME280;38816;51.142;-0.974;2023-03-26T14:39:50;99469.97;;;8.59;100.00
51439;BME280;38816;51.142;-0.974;2023-03-26T14:42:28;99473.22;;;8.46;100.00
51439;BME280;38816;51.142;-0.974;2023-03-26T14:47:53;99476.25;;;8.17;100.00
51439;BME280;38816;51.142;-0.974;2023-03-26T14:53:30;99493.44;;;8.26;100.00
51439;BME280;38816;51.142;-0.974;2023-03-26T15:07:35;99519.44;;;8.53;100.00
51439;BME280;38816;51.142;-0.974;2023-03-26T15:13:20;99511.22;;;8.15;100.00
51439;BME280;38816;51.142;-0.974;2023-03-26T15:41:00;99581.97;;;7.60;100.00
51439;BME280;38816;51.142;-0.974;2023-03-26T15:54:29;99641.69;;;7.62;100.00
51439;BME280;38816;51.142;-0.974;2023-03-26T16:04:53;99664.97;;;7.76;100.00
51439;BME280;38816;51.142;-0.974;2023-03-26T16:15:53;99680.56;;;7.44;100.00
51439;BME280;38816;51.142;-0.974;2023-03-26T16:18:34;99681.34;;;7.40;100.00
51439;BME280;38816;51.142;-0.974;2023-03-26T16:28:35;99718.19;;;7.51;100.00
51439;BME280;38816;51.142;-0.974;2023-03-26T16:34:02;99734.28;;;7.44;100.00
51439;BME280;38816;51.142;-0.974;2023-03-26T16:36:57;99763.16;;;7.40;100.00
51439;BME280;38816;51.142;-0.974;2023-03-26T16:39:40;99764.03;;;7.42;100.00
51439;BME280;38816;51.142;-0.974;2023-03-26T16:42:38;99781.69;;;7.30;100.00
51439;BME280;38816;51.142;-0.974;2023-03-26T16:45:37;99793.84;;;7.40;100.00
51439;BME280;38816;51.142;-0.974;2023-03-26T16:48:24;99791.41;;;7.46;100.00
51439;BME280;38816;51.142;-0.974;2023-03-26T16:54:11;99794.16;;;7.54;100.00
51439;BME280;38816;51.142;-0.974;2023-03-26T16:56:48;99809.38;;;7.48;100.00
51439;BME280;38816;51.142;-0.974;2023-03-26T17:02:22;99811.66;;;7.37;100.00
51439;BME280;38816;51.142;-0.974;2023-03-26T17:04:54;99824.50;;;7.39;98.93
51439;BME280;38816;51.142;-0.974;2023-03-26T17:07:29;99819.25;;;7.32;99.77
51439;BME280;38816;51.142;-0.974;2023-03-26T17:10:20;99837.28;;;7.39;95.57
51439;BME280;38816;51.142;-0.974;2023-03-26T17:13:02;99834.16;;;7.14;99.44
51439;BME280;38816;51.142;-0.974;2023-03-26T17:18:26;99851.81;;;7.05;100.00
51439;BME280;38816;51.142;-0.974;2023-03-26T17:21:01;99860.22;;;6.99;100.00
51439;BME280;38816;51.142;-0.974;2023-03-26T17:26:51;99870.44;;;6.99;98.39
51439;BME280;38816;51.142;-0.974;2023-03-26T17:29:35;99881.91;;;6.80;99.80
51439;BME280;38816;51.142;-0.974;2023-03-26T17:32:09;99886.56;;;6.64;100.00
51439;BME280;38816;51.142;-0.974;2023-03-26T17:37:10;99899.53;;;6.40;100.00
51439;BME280;38816;51.142;-0.974;2023-03-26T17:45:19;99928.84;;;6.24;100.00
51439;BME280;38816;51.142;-0.974;2023-03-26T17:47:55;99914.16;;;6.15;100.00
51439;BME280;38816;51.142;-0.974;2023-03-26T17:50:31;99913.84;;;6.04;100.00
51439;BME280;38816;51.142;-0.974;2023-03-26T17:53:00;99926.00;;;6.13;100.00
51439;BME280;38816;51.142;-0.974;2023-03-26T17:55:33;99930.19;;;6.11;100.00
51439;BME280;38816;51.142;-0.974;2023-03-26T17:58:02;99930.28;;;6.14;100.00
51439;BME280;38816;51.142;-0.974;2023-03-26T18:00:41;99944.06;;;6.21;100.00
51439;BME280;38816;51.142;-0.974;2023-03-26T18:03:21;99954.25;;;6.19;100.00
51439;BME280;38816;51.142;-0.974;2023-03-26T18:05:51;99951.53;;;6.13;100.00
51439;BME280;38816;51.142;-0.974;2023-03-26T18:11:13;99965.03;;;6.09;100.00
51439;BME280;38816;51.142;-0.974;2023-03-26T18:14:13;99972.28;;;5.97;100.00
51439;BME280;38816;51.142;-0.974;2023-03-26T18:16:47;99992.94;;;6.04;100.00
51439;BME280;38816;51.142;-0.974;2023-03-26T18:19:19;99995.16;;;5.94;100.00
51439;BME280;38816;51.142;-0.974;2023-03-26T18:21:52;100007.72;;;5.89;100.00
51439;BME280;38816;51.142;-0.974;2023-03-26T18:24:21;100002.25;;;5.77;100.00
51439;BME280;38816;51.142;-0.974;2023-03-26T18:27:10;100005.69;;;5.77;100.00
51439;BME280;38816;51.142;-0.974;2023-03-26T18:29:42;100008.00;;;5.71;100.00
51439;BME280;38816;51.142;-0.974;2023-03-26T18:34:35;100025.16;;;5.75;100.00
51439;BME280;38816;51.142;-0.974;2023-03-26T18:37:14;100014.91;;;5.74;100.00
51439;BME280;38816;51.142;-0.974;2023-03-26T18:42:28;100044.22;;;5.87;100.00
51439;BME280;38816;51.142;-0.974;2023-03-26T18:44:55;100033.81;;;5.80;100.00